Time;durP1;ratioP1;P1;durP2;ratioP2;P2;SDS_P1;SDS_P2;PMS_P1;PMS_P2;Temp;Humidity;BMP_temperature;BMP_pressure;BME280_temperature;BME280_humidity;BME280_pressure;Samples;Min_cycle;Max_cycle;Signal;HPM_P1;HPM_P2
2023/06/19 00:00:17;;;;;;;;;;;21.70;99.90;;;;;;5094569;28;19904;-75
2023/06/19 00:02:43;;;;;;;;;;;21.80;99.90;;;;;;5094756;28;20272;-76
2023/06/19 00:05:09;;;;;;;;;;;21.80;99.90;;;;;;5094186;28;20281;-75
2023/06/19 00:07:36;;;;;;;;;;;21.70;99.90;;;;;;5094802;28;19912;-75
2023/06/19 00:10:02;;;;;;;;;;;21.70;99.90;;;;;;5094537;28;19990;-75
2023/06/19 00:12:27;;;;;;;;;;;21.70;99.90;;;;;;5094142;28;20015;-75
2023/06/19 00:14:53;;;;;;;;;;;21.70;99.90;;;;;;5094181;28;19915;-75
2023/06/19 00:17:19;;;;;;;;;;;21.70;99.90;;;;;;5093472;28;19904;-75
2023/06/19 00:19:45;;;;;;;;;;;21.70;99.90;;;;;;5093980;28;19911;-76
2023/06/19 00:22:10;;;;;;;;;;;21.70;99.90;;;;;;5094114;28;19948;-75
2023/06/19 00:24:36;;;;;;;;;;;21.70;99.90;;;;;;5094041;28;19912;-75
2023/06/19 00:27:02;;;;;;;;;;;21.70;99.90;;;;;;5075755;28;19952;-75
2023/06/19 00:29:28;;;;;;;;;;;21.70;99.90;;;;;;5094228;28;19904;-75
2023/06/19 00:31:54;;;;;;;;;;;21.70;99.90;;;;;;5094075;28;19991;-75
2023/06/19 00:34:20;;;;;;;;;;;21.70;99.90;;;;;;5093724;28;19927;-75
2023/06/19 00:36:46;;;;;;;;;;;21.70;99.90;;;;;;5093779;28;20006;-75
2023/06/19 00:39:12;;;;;;;;;;;21.70;99.90;;;;;;5093845;28;19904;-75
2023/06/19 00:41:38;;;;;;;;;;;21.70;99.90;;;;;;5093725;28;19965;-75
2023/06/19 00:44:04;;;;;;;;;;;21.70;99.90;;;;;;5094252;28;19904;-75
2023/06/19 00:46:30;;;;;;;;;;;21.70;99.90;;;;;;5093910;28;19951;-74
2023/06/19 00:48:56;;;;;;;;;;;21.70;99.90;;;;;;5093658;28;19981;-74
2023/06/19 00:51:22;;;;;;;;;;;21.70;99.90;;;;;;5093203;28;20254;-74
2023/06/19 00:53:48;;;;;;;;;;;21.70;99.90;;;;;;5091999;28;19904;-73
2023/06/19 00:56:17;;;;;;;;;;;21.70;99.90;;;;;;5093786;28;19904;-73
2023/06/19 00:58:44;;;;;;;;;;;21.70;99.90;;;;;;5075100;28;19954;-73
2023/06/19 01:01:10;;;;;;;;;;;21.70;99.90;;;;;;5075125;28;20419;-75
2023/06/19 01:03:36;;;;;;;;;;;21.60;99.90;;;;;;5093202;28;19946;-74
2023/06/19 01:06:02;;;;;;;;;;;21.60;99.90;;;;;;5093036;28;19911;-74
2023/06/19 01:08:28;;;;;;;;;;;21.60;99.90;;;;;;5093607;28;19911;-74
2023/06/19 01:10:55;;;;;;;;;;;21.60;99.90;;;;;;5093488;28;19908;-74
2023/06/19 01:13:26;;;;;;;;;;;21.60;99.90;;;;;;5093085;28;20828;-75
2023/06/19 01:15:52;;;;;;;;;;;21.60;99.90;;;;;;5093605;28;19915;-74
2023/06/19 01:18:19;;;;;;;;;;;21.60;99.90;;;;;;5093186;28;19908;-75
2023/06/19 01:20:44;;;;;;;;;;;21.60;99.90;;;;;;5074901;28;20012;-74
2023/06/19 01:23:11;;;;;;;;;;;21.70;99.90;;;;;;5093668;28;20340;-74
2023/06/19 01:25:37;;;;;;;;;;;21.60;99.90;;;;;;5093109;28;19943;-74
2023/06/19 01:28:05;;;;;;;;;;;21.60;99.90;;;;;;5075651;28;20348;-73
2023/06/19 01:30:31;;;;;;;;;;;21.50;99.90;;;;;;5097819;28;19907;-76
2023/06/19 01:33:06;;;;;;;;;;;21.60;99.90;;;;;;5097374;28;19912;-75
2023/06/19 01:35:34;;;;;;;;;;;21.60;99.90;;;;;;5097236;28;19904;-75
2023/06/19 01:38:01;;;;;;;;;;;21.60;99.90;;;;;;5097411;28;19951;-74
2023/06/19 01:40:31;;;;;;;;;;;21.60;99.90;;;;;;5078967;28;20377;-74
2023/06/19 01:43:04;;;;;;;;;;;21.60;99.90;;;;;;5097406;28;19915;-75
2023/06/19 01:45:30;;;;;;;;;;;21.60;99.90;;;;;;5097140;28;20081;-75
2023/06/19 01:47:56;;;;;;;;;;;21.60;99.90;;;;;;5097076;28;19964;-74
2023/06/19 01:50:23;;;;;;;;;;;21.60;99.90;;;;;;5078704;28;20271;-75
2023/06/19 01:52:49;;;;;;;;;;;21.70;99.90;;;;;;5096889;28;19912;-75
2023/06/19 01:55:15;;;;;;;;;;;21.70;99.90;;;;;;5097201;28;19911;-75
2023/06/19 01:57:41;;;;;;;;;;;21.70;99.90;;;;;;5078723;28;19905;-75
2023/06/19 02:00:10;;;;;;;;;;;21.70;99.90;;;;;;5095493;28;19965;-75
2023/06/19 02:02:36;;;;;;;;;;;21.70;99.90;;;;;;5097055;28;19903;-75
2023/06/19 02:05:02;;;;;;;;;;;21.60;99.90;;;;;;5096615;28;19931;-75
2023/06/19 02:07:28;;;;;;;;;;;21.60;99.90;;;;;;5096988;28;19908;-75
2023/06/19 02:09:54;;;;;;;;;;;21.60;99.90;;;;;;5096787;28;19914;-75
2023/06/19 02:12:19;;;;;;;;;;;21.40;99.90;;;;;;5096574;28;20049;-75
2023/06/19 02:14:45;;;;;;;;;;;21.30;99.90;;;;;;5074708;28;20426;-75
2023/06/19 02:17:11;;;;;;;;;;;21.30;99.90;;;;;;5074811;28;19912;-75
2023/06/19 02:19:37;;;;;;;;;;;21.30;99.90;;;;;;5074585;28;19998;-75
2023/06/19 02:22:03;;;;;;;;;;;21.10;99.90;;;;;;5076123;28;19904;-74
2023/06/19 02:24:28;;;;;;;;;;;21.10;99.90;;;;;;5076328;28;19958;-75
2023/06/19 02:26:54;;;;;;;;;;;21.00;99.90;;;;;;5091850;28;19911;-75
2023/06/19 02:29:20;;;;;;;;;;;21.00;99.90;;;;;;5075973;28;19998;-76
2023/06/19 02:31:46;;;;;;;;;;;21.00;99.90;;;;;;5075996;28;19912;-75
2023/06/19 02:34:12;;;;;;;;;;;21.00;99.90;;;;;;5091556;28;19904;-75
2023/06/19 02:36:37;;;;;;;;;;;20.90;99.90;;;;;;5075787;28;19911;-76
2023/06/19 02:39:04;;;;;;;;;;;20.90;99.90;;;;;;5091103;28;19908;-76
2023/06/19 02:41:30;;;;;;;;;;;20.90;99.90;;;;;;5075427;28;19911;-75
2023/06/19 02:43:56;;;;;;;;;;;20.80;99.90;;;;;;5076175;28;19908;-75
2023/06/19 02:46:22;;;;;;;;;;;20.80;99.90;;;;;;5076149;28;19998;-75
2023/06/19 02:48:48;;;;;;;;;;;20.60;99.90;;;;;;5075751;28;19908;-77
2023/06/19 02:51:14;;;;;;;;;;;20.60;99.90;;;;;;5091034;28;19966;-76
2023/06/19 02:53:41;;;;;;;;;;;20.60;99.90;;;;;;5075649;28;19905;-73
2023/06/19 02:56:07;;;;;;;;;;;20.60;99.90;;;;;;5075713;28;19914;-76
2023/06/19 02:58:34;;;;;;;;;;;20.60;99.90;;;;;;5075404;28;19904;-74
2023/06/19 03:01:00;;;;;;;;;;;20.60;99.90;;;;;;5075712;28;19908;-74
2023/06/19 03:03:26;;;;;;;;;;;20.70;99.90;;;;;;5075261;28;19915;-74
2023/06/19 03:05:51;;;;;;;;;;;20.60;99.90;;;;;;5090430;28;20376;-74
2023/06/19 03:08:17;;;;;;;;;;;20.60;99.90;;;;;;5075103;28;19909;-74
2023/06/19 03:10:43;;;;;;;;;;;20.60;99.90;;;;;;5075230;28;19955;-75
2023/06/19 03:13:09;;;;;;;;;;;20.40;99.90;;;;;;5076090;28;19916;-73
2023/06/19 03:15:34;;;;;;;;;;;20.30;99.90;;;;;;5095684;28;19904;-74
2023/06/19 03:18:04;;;;;;;;;;;20.30;99.90;;;;;;5095381;28;19904;-74
2023/06/19 03:20:30;;;;;;;;;;;20.20;99.90;;;;;;5095348;28;20359;-73
2023/06/19 03:22:56;;;;;;;;;;;20.30;99.90;;;;;;5095821;28;19911;-75
2023/06/19 03:25:22;;;;;;;;;;;20.20;99.90;;;;;;5095310;28;20046;-74
2023/06/19 03:27:48;;;;;;;;;;;20.10;99.90;;;;;;5076963;28;20004;-74
2023/06/19 03:30:13;;;;;;;;;;;20.10;99.90;;;;;;5095384;28;19910;-75
2023/06/19 03:32:39;;;;;;;;;;;20.10;99.90;;;;;;5095016;28;19916;-74
2023/06/19 03:35:05;;;;;;;;;;;20.10;99.90;;;;;;5094869;28;19957;-75
2023/06/19 03:37:32;;;;;;;;;;;20.10;99.90;;;;;;5094884;28;19904;-75
2023/06/19 03:39:58;;;;;;;;;;;20.10;99.90;;;;;;5095224;28;19904;-76
2023/06/19 03:42:24;;;;;;;;;;;20.20;99.90;;;;;;5094909;28;20282;-75
2023/06/19 03:44:50;;;;;;;;;;;20.10;99.90;;;;;;5094778;28;19904;-75
2023/06/19 03:47:16;;;;;;;;;;;20.10;99.90;;;;;;5076533;28;20006;-75
2023/06/19 03:49:42;;;;;;;;;;;20.00;99.90;;;;;;5094386;28;19911;-74
2023/06/19 03:52:08;;;;;;;;;;;20.00;99.90;;;;;;5094822;28;19926;-74
2023/06/19 03:54:33;;;;;;;;;;;20.00;99.90;;;;;;5094726;28;19998;-75
2023/06/19 03:56:59;;;;;;;;;;;19.90;99.90;;;;;;5094453;28;20011;-75
2023/06/19 03:59:25;;;;;;;;;;;19.90;99.90;;;;;;5094448;28;19930;-75
2023/06/19 04:01:51;;;;;;;;;;;19.90;99.90;;;;;;5094560;28;19904;-75
2023/06/19 04:04:17;;;;;;;;;;;19.90;99.90;;;;;;5094475;28;20344;-75
2023/06/19 04:06:43;;;;;;;;;;;19.80;99.90;;;;;;5094235;28;20221;-75
2023/06/19 04:09:09;;;;;;;;;;;19.90;99.90;;;;;;5076200;28;19904;-75
2023/06/19 04:11:35;;;;;;;;;;;20.00;99.90;;;;;;5093173;28;19912;-76
2023/06/19 04:14:01;;;;;;;;;;;20.00;99.90;;;;;;5094386;28;19916;-75
2023/06/19 04:16:26;;;;;;;;;;;20.00;99.90;;;;;;5076042;28;19908;-75
2023/06/19 04:18:52;;;;;;;;;;;20.10;99.90;;;;;;5094155;28;19959;-75
2023/06/19 04:21:18;;;;;;;;;;;20.20;99.90;;;;;;5092632;28;19935;-74
2023/06/19 04:23:44;;;;;;;;;;;20.20;99.90;;;;;;5094037;28;19904;-75
2023/06/19 04:26:10;;;;;;;;;;;20.10;99.90;;;;;;5094061;28;19910;-75
2023/06/19 04:28:35;;;;;;;;;;;20.00;99.90;;;;;;5094238;28;19946;-76
2023/06/19 04:31:01;;;;;;;;;;;20.10;99.90;;;;;;5075665;28;19943;-75
2023/06/19 04:33:28;;;;;;;;;;;20.10;99.90;;;;;;5093881;28;20395;-75
2023/06/19 04:35:54;;;;;;;;;;;20.20;99.90;;;;;;5093848;28;19904;-75
2023/06/19 04:38:23;;;;;;;;;;;20.20;99.90;;;;;;5094116;28;19904;-75
2023/06/19 04:40:50;;;;;;;;;;;20.30;99.90;;;;;;5094493;28;20209;-74
2023/06/19 04:43:16;;;;;;;;;;;20.30;99.90;;;;;;5093784;28;19904;-75
2023/06/19 04:45:42;;;;;;;;;;;20.40;99.90;;;;;;5093964;28;19911;-74
2023/06/19 04:48:08;;;;;;;;;;;20.50;99.90;;;;;;5093838;28;19908;-75
2023/06/19 04:50:34;;;;;;;;;;;20.50;99.90;;;;;;5093321;28;19910;-76
2023/06/19 04:52:59;;;;;;;;;;;20.60;99.90;;;;;;5093077;28;19992;-75
2023/06/19 04:55:25;;;;;;;;;;;20.60;99.90;;;;;;5092057;28;19904;-75
2023/06/19 04:57:51;;;;;;;;;;;20.60;99.90;;;;;;5093276;28;20310;-75
2023/06/19 05:00:19;;;;;;;;;;;20.80;99.90;;;;;;5093773;28;20306;-75
2023/06/19 05:02:46;;;;;;;;;;;21.70;99.90;;;;;;5092979;28;19927;-75
2023/06/19 05:05:13;;;;;;;;;;;22.90;99.90;;;;;;5091770;28;19904;-76
2023/06/19 05:07:39;;;;;;;;;;;23.80;99.90;;;;;;5093189;28;19911;-75
2023/06/19 05:10:05;;;;;;;;;;;24.60;99.90;;;;;;5093013;28;19903;-75
2023/06/19 05:12:30;;;;;;;;;;;25.20;99.90;;;;;;5093520;28;19912;-76
2023/06/19 05:14:56;;;;;;;;;;;26.10;99.90;;;;;;5074497;28;19923;-75
2023/06/19 05:17:22;;;;;;;;;;;26.30;99.90;;;;;;5092950;28;19908;-76
2023/06/19 05:19:48;;;;;;;;;;;26.60;99.90;;;;;;5092772;28;19904;-75
2023/06/19 05:22:14;;;;;;;;;;;27.40;99.90;;;;;;5092884;28;19904;-77
2023/06/19 05:24:40;;;;;;;;;;;28.30;99.90;;;;;;5093021;28;20213;-74
2023/06/19 05:27:06;;;;;;;;;;;28.80;99.70;;;;;;5092936;28;19911;-75
2023/06/19 05:29:32;;;;;;;;;;;28.70;99.20;;;;;;5092811;28;19965;-75
2023/06/19 05:31:57;;;;;;;;;;;28.50;98.80;;;;;;5092805;28;19965;-76
2023/06/19 05:34:23;;;;;;;;;;;28.90;98.70;;;;;;5074707;28;19904;-75
2023/06/19 05:36:49;;;;;;;;;;;29.50;98.10;;;;;;5091076;28;19908;-76
2023/06/19 05:39:15;;;;;;;;;;;29.70;98.00;;;;;;5092172;28;20324;-76
2023/06/19 05:41:41;;;;;;;;;;;29.20;98.40;;;;;;5092747;28;19927;-75
2023/06/19 05:44:07;;;;;;;;;;;28.90;98.90;;;;;;5092904;28;19954;-73
2023/06/19 05:46:33;;;;;;;;;;;29.40;98.90;;;;;;5092780;28;19904;-75
2023/06/19 05:48:58;;;;;;;;;;;29.20;99.30;;;;;;5091262;28;20422;-74
2023/06/19 05:51:24;;;;;;;;;;;29.40;99.10;;;;;;5092276;28;20403;-75
2023/06/19 05:53:51;;;;;;;;;;;29.40;99.10;;;;;;5092877;28;20386;-74
2023/06/19 05:56:17;;;;;;;;;;;29.70;99.10;;;;;;5092288;28;19912;-75
2023/06/19 05:58:43;;;;;;;;;;;30.80;98.60;;;;;;5092520;28;19994;-75
2023/06/19 06:01:09;;;;;;;;;;;31.10;97.80;;;;;;5074022;28;19904;-74
2023/06/19 06:03:35;;;;;;;;;;;30.60;97.50;;;;;;5092305;28;19911;-75
2023/06/19 06:06:04;;;;;;;;;;;29.70;98.20;;;;;;5092496;28;19904;-75
2023/06/19 06:08:30;;;;;;;;;;;29.70;98.30;;;;;;5092487;28;19908;-75
2023/06/19 06:10:56;;;;;;;;;;;30.20;98.30;;;;;;5092235;28;19982;-74
2023/06/19 06:13:22;;;;;;;;;;;30.60;98.10;;;;;;5073657;28;19908;-75
2023/06/19 06:15:48;;;;;;;;;;;31.40;97.00;;;;;;5096080;28;20058;-75
2023/06/19 06:18:14;;;;;;;;;;;31.90;96.20;;;;;;5097570;28;19998;-75
2023/06/19 06:20:39;;;;;;;;;;;32.70;95.00;;;;;;5117290;28;19904;-74
2023/06/19 06:23:05;;;;;;;;;;;33.80;94.50;;;;;;5116592;28;19935;-75
2023/06/19 06:25:31;;;;;;;;;;;34.30;93.50;;;;;;5116323;28;19904;-75
2023/06/19 06:27:57;;;;;;;;;;;35.20;92.90;;;;;;5116011;28;19968;-74
2023/06/19 06:30:23;;;;;;;;;;;36.20;91.80;;;;;;5097501;28;20042;-74
2023/06/19 06:32:49;;;;;;;;;;;36.60;90.90;;;;;;5116375;28;20249;-74
2023/06/19 06:35:15;;;;;;;;;;;37.20;90.00;;;;;;5097544;28;20400;-75
2023/06/19 06:37:41;;;;;;;;;;;37.40;89.40;;;;;;5116236;28;19956;-74
2023/06/19 06:40:11;;;;;;;;;;;37.80;87.40;;;;;;5115710;28;19909;-75
2023/06/19 06:42:37;;;;;;;;;;;38.30;85.70;;;;;;5115711;28;19910;-74
2023/06/19 06:45:04;;;;;;;;;;;39.50;85.10;;;;;;5116079;28;19915;-75
2023/06/19 06:47:30;;;;;;;;;;;40.60;84.10;;;;;;5116135;28;19931;-75
2023/06/19 06:49:56;;;;;;;;;;;42.00;82.40;;;;;;5115694;28;19968;-74
2023/06/19 06:52:22;;;;;;;;;;;40.80;81.80;;;;;;5115566;28;19951;-74
2023/06/19 06:54:48;;;;;;;;;;;39.80;80.80;;;;;;5116022;28;19908;-74
2023/06/19 06:57:14;;;;;;;;;;;39.70;82.40;;;;;;5115428;28;19908;-74
2023/06/19 06:59:40;;;;;;;;;;;40.00;81.50;;;;;;5116073;28;19903;-75
2023/06/19 07:02:06;;;;;;;;;;;40.10;80.10;;;;;;5115260;28;20301;-74
2023/06/19 07:04:32;;;;;;;;;;;40.70;78.80;;;;;;5097052;28;19994;-75
2023/06/19 07:06:58;;;;;;;;;;;40.80;77.80;;;;;;5115754;28;19960;-76
2023/06/19 07:09:24;;;;;;;;;;;39.30;78.30;;;;;;5097750;28;19904;-76
2023/06/19 07:11:50;;;;;;;;;;;39.30;79.00;;;;;;5115951;28;19949;-77
2023/06/19 07:14:18;;;;;;;;;;;39.90;78.30;;;;;;5096930;28;19939;-74
2023/06/19 07:16:45;;;;;;;;;;;39.80;77.90;;;;;;5115271;28;19904;-74
2023/06/19 07:19:11;;;;;;;;;;;39.00;77.90;;;;;;5115115;28;19903;-74
2023/06/19 07:21:38;;;;;;;;;;;38.40;78.00;;;;;;5115258;28;19911;-76
2023/06/19 07:24:04;;;;;;;;;;;38.10;77.90;;;;;;5115846;28;19904;-75
2023/06/19 07:26:30;;;;;;;;;;;37.80;78.60;;;;;;5114461;28;19911;-75
2023/06/19 07:28:56;;;;;;;;;;;37.50;77.60;;;;;;5115322;28;19907;-75
2023/06/19 07:31:22;;;;;;;;;;;36.50;78.00;;;;;;5096340;28;19956;-75
2023/06/19 07:33:47;;;;;;;;;;;36.00;77.60;;;;;;5115171;28;19915;-74
2023/06/19 07:36:14;;;;;;;;;;;34.90;82.20;;;;;;5114540;28;19949;-74
2023/06/19 07:38:40;;;;;;;;;;;34.10;83.90;;;;;;5115262;28;20355;-75
2023/06/19 07:41:08;;;;;;;;;;;34.10;85.20;;;;;;5114643;28;19999;-75
2023/06/19 07:43:34;;;;;;;;;;;34.00;86.70;;;;;;5096273;28;19903;-75
2023/06/19 07:46:00;;;;;;;;;;;34.20;86.80;;;;;;5114964;28;19977;-74
2023/06/19 07:48:26;;;;;;;;;;;34.50;87.00;;;;;;5095559;28;19911;-74
2023/06/19 07:50:52;;;;;;;;;;;34.50;87.50;;;;;;5113972;28;19904;-74
2023/06/19 07:53:18;;;;;;;;;;;34.30;86.90;;;;;;5114510;28;19915;-74
2023/06/19 07:55:44;;;;;;;;;;;33.80;87.20;;;;;;5096410;28;20366;-75
2023/06/19 07:58:13;;;;;;;;;;;33.60;89.30;;;;;;5095751;28;20007;-76
2023/06/19 08:00:39;;;;;;;;;;;33.90;88.10;;;;;;5114174;28;19911;-75
2023/06/19 08:03:05;;;;;;;;;;;33.90;87.30;;;;;;5095812;28;19903;-75
2023/06/19 08:05:31;;;;;;;;;;;33.20;88.00;;;;;;5114081;28;19918;-74
2023/06/19 08:07:58;;;;;;;;;;;33.00;88.60;;;;;;5114233;28;19907;-75
2023/06/19 08:10:24;;;;;;;;;;;33.30;88.90;;;;;;5114038;28;20397;-75
2023/06/19 08:12:50;;;;;;;;;;;33.20;87.60;;;;;;5113934;28;20010;-73
2023/06/19 08:15:19;;;;;;;;;;;32.90;88.00;;;;;;5113998;28;20318;-74
2023/06/19 08:17:45;;;;;;;;;;;32.90;88.60;;;;;;5096313;28;19903;-74
2023/06/19 08:20:11;;;;;;;;;;;33.10;88.90;;;;;;5114117;28;20420;-76
2023/06/19 08:22:37;;;;;;;;;;;33.40;90.00;;;;;;5114238;28;19903;-75
2023/06/19 08:25:03;;;;;;;;;;;33.30;90.40;;;;;;5113962;28;19904;-75
2023/06/19 08:27:29;;;;;;;;;;;33.30;90.00;;;;;;5114098;28;20296;-75
2023/06/19 08:29:55;;;;;;;;;;;33.10;90.10;;;;;;5113825;28;19952;-75
2023/06/19 08:32:21;;;;;;;;;;;32.90;89.30;;;;;;5114203;28;20347;-74
2023/06/19 08:34:47;;;;;;;;;;;32.80;89.40;;;;;;5113802;28;19904;-74
2023/06/19 08:37:12;;;;;;;;;;;32.80;89.30;;;;;;5113116;28;19915;-75
2023/06/19 08:39:39;;;;;;;;;;;33.30;89.30;;;;;;5112950;28;20256;-75
2023/06/19 08:42:08;;;;;;;;;;;33.60;88.80;;;;;;5113761;28;19903;-75
2023/06/19 08:44:35;;;;;;;;;;;33.10;89.30;;;;;;5113447;28;19957;-75
2023/06/19 08:47:03;;;;;;;;;;;33.30;88.90;;;;;;5114024;28;19907;-74
2023/06/19 08:49:30;;;;;;;;;;;33.10;89.60;;;;;;5113767;28;19926;-75
2023/06/19 08:51:56;;;;;;;;;;;32.80;89.50;;;;;;5113142;28;19908;-75
2023/06/19 08:54:22;;;;;;;;;;;32.80;90.00;;;;;;5113412;28;19994;-76
2023/06/19 08:56:49;;;;;;;;;;;32.40;89.30;;;;;;5113294;28;19908;-75
2023/06/19 08:59:16;;;;;;;;;;;31.80;90.90;;;;;;5113349;28;19908;-75
2023/06/19 09:01:51;;;;;;;;;;;31.90;91.60;;;;;;5113395;28;19943;-74
2023/06/19 09:04:18;;;;;;;;;;;31.80;90.90;;;;;;5094925;28;20319;-77
2023/06/19 09:06:50;;;;;;;;;;;31.20;92.50;;;;;;5113182;28;20366;-75
2023/06/19 09:09:16;;;;;;;;;;;31.30;93.20;;;;;;5113619;28;19904;-72
2023/06/19 09:11:43;;;;;;;;;;;31.30;93.10;;;;;;5112870;28;19911;-75
2023/06/19 09:14:12;;;;;;;;;;;31.50;92.60;;;;;;5112717;28;19915;-74
2023/06/19 09:16:42;;;;;;;;;;;31.20;93.10;;;;;;5113038;28;20284;-73
2023/06/19 09:19:08;;;;;;;;;;;31.30;93.40;;;;;;5112986;28;19908;-74
2023/06/19 09:21:36;;;;;;;;;;;31.70;93.10;;;;;;5112993;28;19904;-74
2023/06/19 09:24:06;;;;;;;;;;;31.70;93.30;;;;;;5112644;28;19911;-74
2023/06/19 09:26:32;;;;;;;;;;;31.80;93.40;;;;;;5113023;28;19904;-74
2023/06/19 09:28:58;;;;;;;;;;;31.60;93.70;;;;;;5112656;28;19908;-73
2023/06/19 09:31:33;;;;;;;;;;;31.60;92.90;;;;;;5112275;28;19916;-72
2023/06/19 09:33:59;;;;;;;;;;;31.50;92.60;;;;;;5112564;28;20049;-74
2023/06/19 09:36:26;;;;;;;;;;;31.00;92.70;;;;;;5112638;28;19968;-74
2023/06/19 09:38:52;;;;;;;;;;;31.10;93.30;;;;;;5112590;28;20088;-73
2023/06/19 09:41:19;;;;;;;;;;;31.20;93.20;;;;;;5112586;28;19947;-74
2023/06/19 09:43:47;;;;;;;;;;;31.30;93.00;;;;;;5112414;28;20388;-74
2023/06/19 09:46:14;;;;;;;;;;;31.10;93.10;;;;;;5113032;28;19908;-74
2023/06/19 09:48:44;;;;;;;;;;;31.00;92.90;;;;;;5112535;28;19910;-73
2023/06/19 09:51:33;;;;;;;;;;;30.50;92.70;;;;;;5116407;28;20339;-73
2023/06/19 09:54:00;;;;;;;;;;;30.40;92.10;;;;;;5098192;28;19987;-74
2023/06/19 09:56:27;;;;;;;;;;;30.40;92.50;;;;;;5117190;28;20274;-74
2023/06/19 09:58:54;;;;;;;;;;;30.20;91.90;;;;;;5116641;28;20352;-73
2023/06/19 10:01:20;;;;;;;;;;;29.90;92.80;;;;;;5116385;28;19973;-73
2023/06/19 10:03:46;;;;;;;;;;;30.00;93.60;;;;;;5116462;28;20367;-74
2023/06/19 10:06:16;;;;;;;;;;;30.10;92.70;;;;;;5116618;28;19955;-75
2023/06/19 10:08:43;;;;;;;;;;;30.50;92.80;;;;;;5117219;28;19903;-74
2023/06/19 10:11:09;;;;;;;;;;;30.20;92.70;;;;;;5116395;28;19949;-74
2023/06/19 10:13:38;;;;;;;;;;;30.50;93.10;;;;;;5094835;28;20356;-73
2023/06/19 10:16:04;;;;;;;;;;;30.70;93.20;;;;;;5094657;28;20002;-74
2023/06/19 10:18:32;;;;;;;;;;;30.30;94.30;;;;;;5095833;28;19904;-73
2023/06/19 10:20:57;;;;;;;;;;;30.50;93.90;;;;;;5095931;28;19941;-74
2023/06/19 10:23:25;;;;;;;;;;;30.50;94.20;;;;;;5095857;28;19903;-74
2023/06/19 10:25:54;;;;;;;;;;;30.30;94.80;;;;;;5096196;28;20498;-74
2023/06/19 10:28:23;;;;;;;;;;;30.20;94.60;;;;;;5095733;28;20014;-75
2023/06/19 10:30:53;;;;;;;;;;;30.40;94.80;;;;;;5096217;28;19996;-75
2023/06/19 10:33:18;;;;;;;;;;;30.30;95.00;;;;;;5096635;28;19916;-73
2023/06/19 10:35:44;;;;;;;;;;;30.00;94.40;;;;;;5096102;28;19911;-74
2023/06/19 10:38:10;;;;;;;;;;;29.90;94.40;;;;;;5096361;28;19999;-73
2023/06/19 10:40:37;;;;;;;;;;;29.80;94.60;;;;;;5096251;28;19908;-75
2023/06/19 10:43:03;;;;;;;;;;;29.80;94.30;;;;;;5095801;28;20325;-74
2023/06/19 10:45:29;;;;;;;;;;;29.60;94.80;;;;;;5095752;28;19911;-75
2023/06/19 10:47:55;;;;;;;;;;;29.70;94.70;;;;;;5095348;28;19990;-75
2023/06/19 10:50:22;;;;;;;;;;;29.80;95.20;;;;;;5095210;28;19948;-74
2023/06/19 10:52:48;;;;;;;;;;;29.90;94.90;;;;;;5095532;28;19920;-74
2023/06/19 10:55:15;;;;;;;;;;;30.00;94.60;;;;;;5095168;28;19919;-73
2023/06/19 10:57:44;;;;;;;;;;;29.80;94.70;;;;;;5094188;28;19926;-74
2023/06/19 11:00:14;;;;;;;;;;;29.40;95.10;;;;;;5094999;28;19952;-74
2023/06/19 11:02:42;;;;;;;;;;;29.80;94.70;;;;;;5093208;28;20423;-74
2023/06/19 11:05:12;;;;;;;;;;;29.80;94.00;;;;;;5095397;28;20360;-75
2023/06/19 11:07:38;;;;;;;;;;;29.80;93.70;;;;;;5095128;28;19991;-75
2023/06/19 11:10:04;;;;;;;;;;;29.70;93.80;;;;;;5095393;28;19912;-74
2023/06/19 11:12:31;;;;;;;;;;;30.10;94.40;;;;;;5095174;28;19919;-74
2023/06/19 11:14:57;;;;;;;;;;;29.90;94.50;;;;;;5110627;28;20321;-75
2023/06/19 11:17:23;;;;;;;;;;;29.80;94.10;;;;;;5115771;28;19990;-74
2023/06/19 11:19:51;;;;;;;;;;;29.50;93.20;;;;;;5115287;28;19908;-76
2023/06/19 11:22:17;;;;;;;;;;;29.60;94.40;;;;;;5097040;28;19969;-74
2023/06/19 11:24:44;;;;;;;;;;;29.50;95.00;;;;;;5115320;28;19990;-74
2023/06/19 11:27:16;;;;;;;;;;;29.60;95.60;;;;;;5115011;28;20351;-75
2023/06/19 11:29:42;;;;;;;;;;;29.50;95.70;;;;;;5115530;28;19986;-75
2023/06/19 11:32:10;;;;;;;;;;;29.40;95.40;;;;;;5114941;28;20002;-74
2023/06/19 11:34:36;;;;;;;;;;;29.60;95.30;;;;;;5115293;28;19910;-75
2023/06/19 11:37:11;;;;;;;;;;;29.90;94.20;;;;;;5096290;28;20274;-74
2023/06/19 11:39:41;;;;;;;;;;;30.10;93.50;;;;;;5115159;28;19907;-75
2023/06/19 11:42:08;;;;;;;;;;;29.80;94.50;;;;;;5114867;28;19995;-75
2023/06/19 11:44:33;;;;;;;;;;;29.70;94.80;;;;;;5114974;28;19904;-74
2023/06/19 11:46:59;;;;;;;;;;;29.40;94.40;;;;;;5114799;28;20419;-74
2023/06/19 11:49:26;;;;;;;;;;;29.50;93.90;;;;;;5096250;28;20420;-74
2023/06/19 11:51:53;;;;;;;;;;;29.80;93.00;;;;;;5114490;28;19923;-74
2023/06/19 11:54:19;;;;;;;;;;;29.50;92.40;;;;;;5114873;28;19908;-74
2023/06/19 11:56:48;;;;;;;;;;;29.60;92.30;;;;;;5096607;28;19910;-75
2023/06/19 11:59:14;;;;;;;;;;;29.40;92.60;;;;;;5115245;28;20003;-75
2023/06/19 12:01:40;;;;;;;;;;;29.30;92.20;;;;;;5114617;28;20340;-76
2023/06/19 12:04:06;;;;;;;;;;;29.20;93.30;;;;;;5114566;28;19956;-75
2023/06/19 12:06:32;;;;;;;;;;;29.40;92.50;;;;;;5114368;28;19904;-75
2023/06/19 12:08:58;;;;;;;;;;;29.70;93.40;;;;;;5114794;28;19914;-75
2023/06/19 12:11:24;;;;;;;;;;;29.90;93.20;;;;;;5114144;28;19964;-73
2023/06/19 12:13:50;;;;;;;;;;;29.50;93.30;;;;;;5113649;28;20391;-74
2023/06/19 12:16:16;;;;;;;;;;;29.60;93.30;;;;;;5114242;28;19903;-74
2023/06/19 12:18:42;;;;;;;;;;;29.60;92.70;;;;;;5113858;28;19903;-73
2023/06/19 12:21:08;;;;;;;;;;;29.50;92.80;;;;;;5114028;28;20431;-74
2023/06/19 12:23:34;;;;;;;;;;;29.10;93.60;;;;;;5114220;28;19948;-74
2023/06/19 12:26:00;;;;;;;;;;;28.90;93.00;;;;;;5114057;28;20364;-74
2023/06/19 12:28:26;;;;;;;;;;;29.10;93.10;;;;;;5114375;28;19922;-73
2023/06/19 12:30:52;;;;;;;;;;;29.10;92.60;;;;;;5114252;28;19911;-74
2023/06/19 12:33:19;;;;;;;;;;;29.10;92.60;;;;;;5113544;28;20472;-75
2023/06/19 12:35:45;;;;;;;;;;;29.10;92.20;;;;;;5113817;28;19903;-75
2023/06/19 12:38:11;;;;;;;;;;;29.10;92.00;;;;;;5114223;28;19904;-74
2023/06/19 12:40:37;;;;;;;;;;;29.00;92.50;;;;;;5113900;28;19904;-74
2023/06/19 12:43:03;;;;;;;;;;;29.30;93.00;;;;;;5113886;28;20029;-74
2023/06/19 12:45:28;;;;;;;;;;;29.20;93.40;;;;;;5113636;28;19908;-75
2023/06/19 12:47:54;;;;;;;;;;;29.50;94.00;;;;;;5114238;28;19903;-74
2023/06/19 12:50:20;;;;;;;;;;;29.60;94.20;;;;;;5113730;28;20328;-74
2023/06/19 12:52:46;;;;;;;;;;;29.60;93.30;;;;;;5094965;28;19911;-74
2023/06/19 12:55:12;;;;;;;;;;;29.60;93.30;;;;;;5113507;28;20002;-75
2023/06/19 12:57:38;;;;;;;;;;;29.70;93.10;;;;;;5113894;28;20244;-75
2023/06/19 13:00:07;;;;;;;;;;;29.80;93.70;;;;;;5113308;28;19990;-74
2023/06/19 13:02:33;;;;;;;;;;;29.90;93.10;;;;;;5113552;28;19903;-74
2023/06/19 13:04:59;;;;;;;;;;;29.80;93.30;;;;;;5113529;28;19914;-75
2023/06/19 13:07:25;;;;;;;;;;;29.70;93.10;;;;;;5113236;28;20375;-74
2023/06/19 13:09:51;;;;;;;;;;;29.80;93.90;;;;;;5113852;28;20351;-75
2023/06/19 13:12:16;;;;;;;;;;;29.90;93.80;;;;;;5113682;28;19916;-75
2023/06/19 13:14:42;;;;;;;;;;;29.90;93.50;;;;;;5094805;28;19973;-75
2023/06/19 13:17:08;;;;;;;;;;;29.70;93.20;;;;;;5113162;28;19928;-75
2023/06/19 13:19:34;;;;;;;;;;;29.70;93.70;;;;;;5113097;28;19951;-75
2023/06/19 13:22:00;;;;;;;;;;;29.80;93.90;;;;;;5113183;28;19996;-75
2023/06/19 13:24:27;;;;;;;;;;;29.90;93.90;;;;;;5113111;28;20266;-76
2023/06/19 13:26:53;;;;;;;;;;;29.90;94.30;;;;;;5113140;28;19908;-75
2023/06/19 13:29:19;;;;;;;;;;;29.40;93.50;;;;;;5113440;28;20001;-75
2023/06/19 13:31:45;;;;;;;;;;;29.50;94.20;;;;;;5113186;28;20020;-75
2023/06/19 13:34:11;;;;;;;;;;;29.50;93.90;;;;;;5113644;28;20032;-75
2023/06/19 13:36:37;;;;;;;;;;;29.50;94.20;;;;;;5094511;28;19904;-75
2023/06/19 13:39:03;;;;;;;;;;;29.80;94.50;;;;;;5113066;28;20007;-74
2023/06/19 13:41:31;;;;;;;;;;;29.70;93.60;;;;;;5113162;28;20492;-75
2023/06/19 13:43:56;;;;;;;;;;;29.80;93.70;;;;;;5113028;28;19907;-73
2023/06/19 13:46:22;;;;;;;;;;;29.70;94.30;;;;;;5112935;28;19969;-74
2023/06/19 13:48:51;;;;;;;;;;;29.80;94.90;;;;;;5112650;28;20313;-73
2023/06/19 13:51:17;;;;;;;;;;;29.70;94.80;;;;;;5112648;28;19907;-73
2023/06/19 13:53:44;;;;;;;;;;;30.00;93.50;;;;;;5112800;28;19904;-73
2023/06/19 13:56:10;;;;;;;;;;;30.20;93.90;;;;;;5128619;28;19904;-74
2023/06/19 13:58:36;;;;;;;;;;;29.90;94.00;;;;;;5094493;28;19931;-74
2023/06/19 14:01:01;;;;;;;;;;;29.40;94.00;;;;;;5112962;28;20359;-74
2023/06/19 14:03:27;;;;;;;;;;;29.00;93.40;;;;;;5112696;28;19908;-74
2023/06/19 14:05:53;;;;;;;;;;;28.80;93.70;;;;;;5113106;28;20324;-74
2023/06/19 14:08:19;;;;;;;;;;;29.00;94.10;;;;;;5095057;28;19916;-74
2023/06/19 14:10:45;;;;;;;;;;;29.30;92.40;;;;;;5112827;28;19910;-74